Lawrenceville, Georgia
Current Conditions -  °F | °C
As of 6:53 AM on Tuesday 27 Jan 2015 (Local Time) from KPDK Reporting Station
Overcast Overcast  
Wind Chill: 28°   Ceiling: 3800
Heat Index: 34°   Visibility: 9mi
Dew Point: 28°   Wind: 7mph
Humidity: 79%   Direction: 290°WNW
Pressure: 29.88"   Gusts: NA
Location:  33.95°N, 83.99°W
Report Text: KPDK 271153Z 29006KT 9SM OVC038 01/M02 A2988 RMK AO2 SLP132 T00111022 10011 21006 53003
Loading
Personal Weather Stations






























Interactive Weather Map New forecast layout! Learn more

10-Day Weather Forecast

Advertisements
Track Severe Weather on mobile